Billy Bishop Toronto City Centre Airport
CYTZ : now visible

Airfield :











YOU CAN JOIN US ON...

 
LOGIN :

Register | Disclaimer

   EN    FR    IT 

 









Legend :    VFR   Marginal VFR   IFR   Intensive IFR   Very Intensive IFR
Visi :
Ceiling :
>= 8 km
>= 3000ft
5 to 8 km
1000 to 3000 ft
1500m to 5 km
500 to 1000 ft
800 to 1500m
200 to 500 ft
< 800m
< 200 ft
Symbols :   Thunderstorms  Fog  Heavy snow  Heavy precipitations  Wind > 20 kt






- Airport Elevation : 251 ft
- IATA code : YTZ


CYTZ - Billy Bishop Toronto City Centre

CURRENT METAR :
  • 280700Z AUTO 25005KT 9SM OVC050 05/01 A3007 RMK SLP188

EXPIRED METARs :
  • 280600Z AUTO 29006KT 9SM BKN030 BKN036 OVC060 05/02 A3009 RMK SLP195
  • 280500Z AUTO 29010KT 9SM OVC034 05/01 A3010 RMK SLP198

TAF TAF CYTZ
Valid from the 28 at 08:00 until the 29 at 08:00 UTC


280738Z 2808/2908 25005KT P6SM OVC050
TEMPO 2808/2814 BKN020 OVC050
FM281400 25008G18KT P6SM BKN020
BECMG 2814/2816 FEW030
FM281800 25010G20KT P6SM FEW030
FM290000 25010KT P6SM FEW030 SCT100 RMK FCST BASED ON AUTO OBS. NXT FCST BY 281400Z
CZYZ FIR / North America



MET'MAP, your aeronautical weather chart ! - Copyright ORBIFLY December 2007 - Disclaimer

ORBIFLY MET'MAP TEAM :

Programming & Development : Alexandra Zaïnal
Concept & original design : Baudouin d'Aumeries
Assistance for programming : Marc-Olivier Méhu
Technical & hardware support : Manuel Goepfert

Contact : metmap@orbifly.com




SOURCES & CREDITS :

   NOAA       Earth
Advisory